sensor_id;sensor_type;location;lat;lon;timestamp;pressure;altitude;pressure_sealevel;temperature;humidity
62592;BME280;48659;41.622;2.276;2023-03-24T00:00:28;99668.18;;;12.58;57.18
62592;BME280;48659;41.622;2.276;2023-03-24T00:02:55;99670.79;;;11.29;59.44
62592;BME280;48659;41.622;2.276;2023-03-24T00:05:24;99664.41;;;11.38;58.49
62592;BME280;48659;41.622;2.276;2023-03-24T00:07:51;99668.24;;;10.80;60.65
62592;BME280;48659;41.622;2.276;2023-03-24T00:10:19;99667.30;;;10.30;63.87
62592;BME280;48659;41.622;2.276;2023-03-24T00:12:48;99658.03;;;11.31;60.90
62592;BME280;48659;41.622;2.276;2023-03-24T00:15:18;99667.31;;;9.10;63.84
62592;BME280;48659;41.622;2.276;2023-03-24T00:17:47;99678.77;;;8.96;65.11
62592;BME280;48659;41.622;2.276;2023-03-24T00:20:14;99668.02;;;9.73;62.74
62592;BME280;48659;41.622;2.276;2023-03-24T00:22:44;99658.59;;;11.46;59.50
62592;BME280;48659;41.622;2.276;2023-03-24T00:25:11;99652.53;;;12.17;56.13
62592;BME280;48659;41.622;2.276;2023-03-24T00:27:38;99654.23;;;13.19;53.76
62592;BME280;48659;41.622;2.276;2023-03-24T00:30:08;99654.73;;;11.84;56.34
62592;BME280;48659;41.622;2.276;2023-03-24T00:32:37;99661.43;;;11.31;57.62
62592;BME280;48659;41.622;2.276;2023-03-24T00:35:06;99659.99;;;9.87;58.67
62592;BME280;48659;41.622;2.276;2023-03-24T00:37:34;99660.01;;;10.51;62.23
62592;BME280;48659;41.622;2.276;2023-03-24T00:40:04;99669.67;;;8.91;65.04
62592;BME280;48659;41.622;2.276;2023-03-24T00:42:32;99658.80;;;10.33;61.64
62592;BME280;48659;41.622;2.276;2023-03-24T00:45:00;99653.83;;;10.73;58.92
62592;BME280;48659;41.622;2.276;2023-03-24T00:47:27;99654.65;;;10.78;59.85
62592;BME280;48659;41.622;2.276;2023-03-24T00:49:54;99653.93;;;9.34;62.62
62592;BME280;48659;41.622;2.276;2023-03-24T00:52:24;99647.41;;;11.06;57.92
62592;BME280;48659;41.622;2.276;2023-03-24T00:54:52;99652.04;;;10.14;60.99
62592;BME280;48659;41.622;2.276;2023-03-24T00:57:20;99654.00;;;10.97;57.33
62592;BME280;48659;41.622;2.276;2023-03-24T00:59:48;99661.65;;;10.21;58.68
62592;BME280;48659;41.622;2.276;2023-03-24T01:02:15;99662.56;;;9.59;59.85
62592;BME280;48659;41.622;2.276;2023-03-24T01:04:43;99655.30;;;11.79;54.59
62592;BME280;48659;41.622;2.276;2023-03-24T01:07:11;99653.11;;;11.71;52.88
62592;BME280;48659;41.622;2.276;2023-03-24T01:09:39;99652.26;;;11.38;53.96
62592;BME280;48659;41.622;2.276;2023-03-24T01:12:07;99661.48;;;11.17;53.86
62592;BME280;48659;41.622;2.276;2023-03-24T01:14:34;99660.13;;;12.29;51.64
62592;BME280;48659;41.622;2.276;2023-03-24T01:17:08;99655.94;;;11.18;50.45
62592;BME280;48659;41.622;2.276;2023-03-24T01:19:35;99656.12;;;12.72;47.70
62592;BME280;48659;41.622;2.276;2023-03-24T01:22:03;99656.13;;;11.78;49.74
62592;BME280;48659;41.622;2.276;2023-03-24T01:24:31;99650.86;;;12.76;48.13
62592;BME280;48659;41.622;2.276;2023-03-24T01:26:58;99641.75;;;12.32;47.52
62592;BME280;48659;41.622;2.276;2023-03-24T01:29:26;99638.98;;;12.45;47.15
62592;BME280;48659;41.622;2.276;2023-03-24T01:31:53;99649.92;;;11.95;48.50
62592;BME280;48659;41.622;2.276;2023-03-24T01:34:20;99647.76;;;12.45;47.54
62592;BME280;48659;41.622;2.276;2023-03-24T01:36:47;99656.88;;;10.06;51.86
62592;BME280;48659;41.622;2.276;2023-03-24T01:39:15;99644.67;;;12.05;48.64
62592;BME280;48659;41.622;2.276;2023-03-24T01:41:42;99636.09;;;12.49;48.34
62592;BME280;48659;41.622;2.276;2023-03-24T01:44:29;99642.49;;;11.87;48.08
62592;BME280;48659;41.622;2.276;2023-03-24T01:46:58;99632.63;;;13.60;45.81
62592;BME280;48659;41.622;2.276;2023-03-24T01:49:35;99633.66;;;12.99;46.70
62592;BME280;48659;41.622;2.276;2023-03-24T01:52:06;99634.57;;;12.88;45.88
62592;BME280;48659;41.622;2.276;2023-03-24T01:54:37;99624.98;;;13.52;46.15
62592;BME280;48659;41.622;2.276;2023-03-24T01:57:10;99619.20;;;12.24;46.08
62592;BME280;48659;41.622;2.276;2023-03-24T01:59:42;99607.80;;;12.33;46.06
62592;BME280;48659;41.622;2.276;2023-03-24T02:02:12;99605.75;;;10.85;50.12
62592;BME280;48659;41.622;2.276;2023-03-24T02:04:43;99601.24;;;11.73;50.86
62592;BME280;48659;41.622;2.276;2023-03-24T02:07:15;99608.71;;;10.21;52.69
62592;BME280;48659;41.622;2.276;2023-03-24T02:09:45;99615.02;;;10.33;55.81
62592;BME280;48659;41.622;2.276;2023-03-24T02:12:13;99611.12;;;8.43;58.18
62592;BME280;48659;41.622;2.276;2023-03-24T02:14:41;99606.55;;;11.42;53.16
62592;BME280;48659;41.622;2.276;2023-03-24T02:17:28;99608.92;;;11.21;52.18
62592;BME280;48659;41.622;2.276;2023-03-24T02:20:32;99616.52;;;9.81;55.26
62592;BME280;48659;41.622;2.276;2023-03-24T02:23:25;99610.15;;;11.48;52.24
62592;BME280;48659;41.622;2.276;2023-03-24T02:26:33;99608.04;;;12.54;50.19
62592;BME280;48659;41.622;2.276;2023-03-24T02:31:52;99602.64;;;12.25;50.48
62592;BME280;48659;41.622;2.276;2023-03-24T02:34:52;99611.35;;;9.68;53.76
62592;BME280;48659;41.622;2.276;2023-03-24T02:37:31;99601.90;;;10.33;53.04
62592;BME280;48659;41.622;2.276;2023-03-24T02:40:25;99589.92;;;10.74;50.82
62592;BME280;48659;41.622;2.276;2023-03-24T02:43:36;99592.69;;;12.16;49.35
62592;BME280;48659;41.622;2.276;2023-03-24T02:46:11;99598.51;;;11.49;50.11
62592;BME280;48659;41.622;2.276;2023-03-24T02:48:51;99601.44;;;12.33;49.52
62592;BME280;48659;41.622;2.276;2023-03-24T02:51:26;99600.36;;;12.43;50.07
62592;BME280;48659;41.622;2.276;2023-03-24T02:54:02;99602.16;;;12.04;50.12
62592;BME280;48659;41.622;2.276;2023-03-24T02:56:36;99596.28;;;12.03;50.55
62592;BME280;48659;41.622;2.276;2023-03-24T02:59:14;99597.60;;;11.72;49.95
62592;BME280;48659;41.622;2.276;2023-03-24T03:01:46;99594.63;;;12.44;48.62
62592;BME280;48659;41.622;2.276;2023-03-24T03:04:17;99592.64;;;12.32;48.93
62592;BME280;48659;41.622;2.276;2023-03-24T03:06:50;99599.53;;;12.50;48.28
62592;BME280;48659;41.622;2.276;2023-03-24T03:09:21;99588.71;;;10.87;50.41
62592;BME280;48659;41.622;2.276;2023-03-24T03:11:53;99585.07;;;12.04;50.01
62592;BME280;48659;41.622;2.276;2023-03-24T03:14:27;99581.52;;;11.13;49.85
62592;BME280;48659;41.622;2.276;2023-03-24T03:16:59;99576.61;;;12.06;50.03
62592;BME280;48659;41.622;2.276;2023-03-24T03:24:40;99560.47;;;10.84;48.97
62592;BME280;48659;41.622;2.276;2023-03-24T03:27:11;99562.40;;;12.60;48.31
62592;BME280;48659;41.622;2.276;2023-03-24T03:29:44;99556.56;;;12.96;47.99
62592;BME280;48659;41.622;2.276;2023-03-24T03:32:21;99556.62;;;12.74;48.06
62592;BME280;48659;41.622;2.276;2023-03-24T03:34:54;99559.26;;;8.89;53.57
62592;BME280;48659;41.622;2.276;2023-03-24T03:37:27;99557.36;;;9.55;54.60
62592;BME280;48659;41.622;2.276;2023-03-24T03:39:59;99555.55;;;10.47;53.95
62592;BME280;48659;41.622;2.276;2023-03-24T03:42:36;99562.69;;;10.35;54.64
62592;BME280;48659;41.622;2.276;2023-03-24T03:45:05;99568.83;;;9.77;56.12
62592;BME280;48659;41.622;2.276;2023-03-24T03:47:34;99566.01;;;9.40;56.56
62592;BME280;48659;41.622;2.276;2023-03-24T03:50:02;99566.39;;;8.40;58.89
62592;BME280;48659;41.622;2.276;2023-03-24T03:52:30;99569.63;;;8.66;60.41
62592;BME280;48659;41.622;2.276;2023-03-24T03:54:57;99570.90;;;9.28;58.60
62592;BME280;48659;41.622;2.276;2023-03-24T03:57:38;99574.87;;;7.54;62.05
62592;BME280;48659;41.622;2.276;2023-03-24T04:00:11;99563.30;;;9.37;58.41
62592;BME280;48659;41.622;2.276;2023-03-24T04:02:53;99556.31;;;8.83;58.80
62592;BME280;48659;41.622;2.276;2023-03-24T04:05:29;99558.19;;;10.66;55.68
62592;BME280;48659;41.622;2.276;2023-03-24T04:08:08;99557.28;;;11.02;54.33
62592;BME280;48659;41.622;2.276;2023-03-24T04:10:54;99548.48;;;10.86;52.91
62592;BME280;48659;41.622;2.276;2023-03-24T04:13:33;99542.94;;;12.09;51.60
62592;BME280;48659;41.622;2.276;2023-03-24T04:16:08;99541.80;;;12.04;51.08
62592;BME280;48659;41.622;2.276;2023-03-24T04:18:50;99540.65;;;10.79;53.53
62592;BME280;48659;41.622;2.276;2023-03-24T04:21:30;99538.53;;;10.76;53.59
62592;BME280;48659;41.622;2.276;2023-03-24T04:24:10;99544.98;;;11.13;53.03
62592;BME280;48659;41.622;2.276;2023-03-24T04:26:50;99547.24;;;10.84;52.18
62592;BME280;48659;41.622;2.276;2023-03-24T04:29:25;99553.22;;;10.57;52.76
62592;BME280;48659;41.622;2.276;2023-03-24T04:32:10;99552.04;;;10.78;52.20
62592;BME280;48659;41.622;2.276;2023-03-24T04:34:43;99563.68;;;9.02;55.73
62592;BME280;48659;41.622;2.276;2023-03-24T04:37:13;99562.85;;;10.83;53.48
62592;BME280;48659;41.622;2.276;2023-03-24T04:39:44;99560.52;;;10.32;54.53
62592;BME280;48659;41.622;2.276;2023-03-24T04:42:16;99558.62;;;10.46;53.97
62592;BME280;48659;41.622;2.276;2023-03-24T04:44:45;99555.70;;;10.47;54.20
62592;BME280;48659;41.622;2.276;2023-03-24T04:47:14;99560.53;;;10.92;53.55
62592;BME280;48659;41.622;2.276;2023-03-24T04:49:43;99551.13;;;10.54;53.62
62592;BME280;48659;41.622;2.276;2023-03-24T04:52:11;99550.25;;;11.15;54.03
62592;BME280;48659;41.622;2.276;2023-03-24T04:54:38;99551.05;;;9.70;55.52
62592;BME280;48659;41.622;2.276;2023-03-24T04:57:05;99551.08;;;8.80;59.65
62592;BME280;48659;41.622;2.276;2023-03-24T04:59:37;99548.25;;;10.66;53.36
62592;BME280;48659;41.622;2.276;2023-03-24T05:02:04;99557.45;;;9.92;54.68
62592;BME280;48659;41.622;2.276;2023-03-24T05:04:37;99553.95;;;9.40;54.09
62592;BME280;48659;41.622;2.276;2023-03-24T05:07:04;99543.56;;;10.46;52.67
62592;BME280;48659;41.622;2.276;2023-03-24T05:09:37;99550.32;;;7.56;58.52
62592;BME280;48659;41.622;2.276;2023-03-24T05:12:05;99541.07;;;10.80;52.28
62592;BME280;48659;41.622;2.276;2023-03-24T05:14:33;99560.98;;;6.71;60.78
62592;BME280;48659;41.622;2.276;2023-03-24T05:17:00;99566.26;;;8.42;59.49
62592;BME280;48659;41.622;2.276;2023-03-24T05:19:35;99572.49;;;6.75;61.58
62592;BME280;48659;41.622;2.276;2023-03-24T05:22:03;99575.64;;;7.92;60.15
62592;BME280;48659;41.622;2.276;2023-03-24T05:24:31;99572.34;;;9.62;55.50
62592;BME280;48659;41.622;2.276;2023-03-24T05:26:58;99569.58;;;9.90;54.93
62592;BME280;48659;41.622;2.276;2023-03-24T05:29:25;99569.44;;;10.45;54.16
62592;BME280;48659;41.622;2.276;2023-03-24T05:31:53;99576.17;;;9.07;55.89
62592;BME280;48659;41.622;2.276;2023-03-24T05:34:20;99581.33;;;9.97;54.15
62592;BME280;48659;41.622;2.276;2023-03-24T05:36:47;99585.17;;;9.98;55.78
62592;BME280;48659;41.622;2.276;2023-03-24T05:39:14;99588.42;;;10.41;54.50
62592;BME280;48659;41.622;2.276;2023-03-24T05:41:43;99589.52;;;9.27;55.12
62592;BME280;48659;41.622;2.276;2023-03-24T05:44:10;99586.32;;;10.94;52.89
62592;BME280;48659;41.622;2.276;2023-03-24T05:46:38;99587.95;;;10.31;53.52
62592;BME280;48659;41.622;2.276;2023-03-24T05:49:05;99591.31;;;9.04;55.70
62592;BME280;48659;41.622;2.276;2023-03-24T05:51:32;99589.13;;;10.39;52.76
62592;BME280;48659;41.622;2.276;2023-03-24T05:54:00;99594.23;;;10.69;51.90
62592;BME280;48659;41.622;2.276;2023-03-24T05:56:28;99598.35;;;10.62;52.32
62592;BME280;48659;41.622;2.276;2023-03-24T05:58:56;99593.88;;;10.90;51.94
62592;BME280;48659;41.622;2.276;2023-03-24T06:01:24;99589.22;;;10.96;51.60
62592;BME280;48659;41.622;2.276;2023-03-24T06:03:52;99587.93;;;10.45;49.80
62592;BME280;48659;41.622;2.276;2023-03-24T06:06:19;99599.57;;;10.05;52.32
62592;BME280;48659;41.622;2.276;2023-03-24T06:08:47;99603.95;;;8.41;56.19
62592;BME280;48659;41.622;2.276;2023-03-24T06:11:15;99600.96;;;8.48;57.34
62592;BME280;48659;41.622;2.276;2023-03-24T06:13:42;99596.60;;;9.66;55.00
62592;BME280;48659;41.622;2.276;2023-03-24T06:16:11;99596.78;;;9.83;54.69
62592;BME280;48659;41.622;2.276;2023-03-24T06:18:38;99601.99;;;10.45;53.61
62592;BME280;48659;41.622;2.276;2023-03-24T06:21:06;99603.63;;;10.66;52.73
62592;BME280;48659;41.622;2.276;2023-03-24T06:23:34;99609.47;;;10.45;52.88
62592;BME280;48659;41.622;2.276;2023-03-24T06:26:01;99606.98;;;10.07;52.67
62592;BME280;48659;41.622;2.276;2023-03-24T06:28:33;99605.51;;;10.86;51.65
62592;BME280;48659;41.622;2.276;2023-03-24T06:31:03;99604.84;;;11.30;51.22
62592;BME280;48659;41.622;2.276;2023-03-24T06:33:31;99604.65;;;11.28;51.33
62592;BME280;48659;41.622;2.276;2023-03-24T06:35:59;99613.91;;;11.45;50.01
62592;BME280;48659;41.622;2.276;2023-03-24T06:38:26;99633.86;;;12.00;49.90
62592;BME280;48659;41.622;2.276;2023-03-24T06:40:59;99632.68;;;11.79;50.39
62592;BME280;48659;41.622;2.276;2023-03-24T06:43:27;99627.07;;;11.96;50.67
62592;BME280;48659;41.622;2.276;2023-03-24T06:45:55;99629.50;;;11.97;50.03
62592;BME280;48659;41.622;2.276;2023-03-24T06:48:22;99635.98;;;13.00;48.76
62592;BME280;48659;41.622;2.276;2023-03-24T06:50:51;99635.92;;;12.59;48.68
62592;BME280;48659;41.622;2.276;2023-03-24T06:53:19;99639.27;;;12.99;48.17
62592;BME280;48659;41.622;2.276;2023-03-24T06:55:46;99637.49;;;13.14;48.31
62592;BME280;48659;41.622;2.276;2023-03-24T06:58:14;99626.18;;;13.31;48.48
62592;BME280;48659;41.622;2.276;2023-03-24T07:00:42;99628.07;;;12.57;48.61
62592;BME280;48659;41.622;2.276;2023-03-24T07:03:10;99626.81;;;13.66;47.77
62592;BME280;48659;41.622;2.276;2023-03-24T07:05:37;99617.24;;;13.55;47.72
62592;BME280;48659;41.622;2.276;2023-03-24T07:08:05;99620.61;;;14.29;48.72
62592;BME280;48659;41.622;2.276;2023-03-24T07:10:35;99627.72;;;13.41;50.97
62592;BME280;48659;41.622;2.276;2023-03-24T07:13:03;99626.48;;;13.50;50.73
62592;BME280;48659;41.622;2.276;2023-03-24T07:15:37;99614.08;;;13.68;50.15
62592;BME280;48659;41.622;2.276;2023-03-24T07:18:05;99616.54;;;13.51;52.27
62592;BME280;48659;41.622;2.276;2023-03-24T07:20:39;99621.37;;;13.98;50.84
62592;BME280;48659;41.622;2.276;2023-03-24T07:23:07;99621.08;;;14.79;50.46
62592;BME280;48659;41.622;2.276;2023-03-24T07:25:38;99615.50;;;14.00;50.43
62592;BME280;48659;41.622;2.276;2023-03-24T07:28:06;99613.99;;;14.85;49.85
62592;BME280;48659;41.622;2.276;2023-03-24T07:30:34;99608.37;;;14.45;49.99
62592;BME280;48659;41.622;2.276;2023-03-24T07:33:02;99618.58;;;15.06;50.34
62592;BME280;48659;41.622;2.276;2023-03-24T07:35:30;99620.31;;;14.61;50.78
62592;BME280;48659;41.622;2.276;2023-03-24T07:37:57;99623.24;;;14.62;51.21
62592;BME280;48659;41.622;2.276;2023-03-24T07:40:25;99628.20;;;14.97;50.06
62592;BME280;48659;41.622;2.276;2023-03-24T07:42:53;99627.49;;;14.95;50.60
62592;BME280;48659;41.622;2.276;2023-03-24T07:45:20;99630.09;;;15.18;49.72
62592;BME280;48659;41.622;2.276;2023-03-24T07:47:48;99634.96;;;14.20;51.30
62592;BME280;48659;41.622;2.276;2023-03-24T07:50:16;99631.16;;;14.34;51.43
62592;BME280;48659;41.622;2.276;2023-03-24T07:52:47;99637.36;;;13.32;53.96
62592;BME280;48659;41.622;2.276;2023-03-24T07:55:16;99639.84;;;14.49;51.17
62592;BME280;48659;41.622;2.276;2023-03-24T07:57:46;99642.01;;;14.61;49.97
62592;BME280;48659;41.622;2.276;2023-03-24T08:00:14;99639.79;;;14.95;48.12
62592;BME280;48659;41.622;2.276;2023-03-24T08:02:45;99638.99;;;15.48;47.03
62592;BME280;48659;41.622;2.276;2023-03-24T08:05:13;99638.61;;;15.34;47.20
62592;BME280;48659;41.622;2.276;2023-03-24T08:07:41;99640.43;;;15.01;47.07
62592;BME280;48659;41.622;2.276;2023-03-24T08:10:09;99639.60;;;15.46;46.98
62592;BME280;48659;41.622;2.276;2023-03-24T08:12:38;99646.14;;;13.79;48.99
62592;BME280;48659;41.622;2.276;2023-03-24T08:15:07;99644.58;;;14.99;46.67
62592;BME280;48659;41.622;2.276;2023-03-24T08:17:35;99644.66;;;13.40;48.35
62592;BME280;48659;41.622;2.276;2023-03-24T08:20:03;99648.32;;;14.87;46.92
62592;BME280;48659;41.622;2.276;2023-03-24T08:22:32;99642.01;;;15.37;45.40
62592;BME280;48659;41.622;2.276;2023-03-24T08:22:34;99643.07;;;15.17;45.37
62592;BME280;48659;41.622;2.276;2023-03-24T08:25:03;99642.41;;;15.39;46.22
62592;BME280;48659;41.622;2.276;2023-03-24T08:27:30;99649.10;;;15.10;46.80
62592;BME280;48659;41.622;2.276;2023-03-24T08:29:57;99638.19;;;15.95;44.96
62592;BME280;48659;41.622;2.276;2023-03-24T08:32:25;99641.67;;;16.42;44.22
62592;BME280;48659;41.622;2.276;2023-03-24T08:34:52;99647.62;;;15.95;43.89
62592;BME280;48659;41.622;2.276;2023-03-24T08:37:19;99641.94;;;16.70;43.48
62592;BME280;48659;41.622;2.276;2023-03-24T08:39:47;99642.29;;;16.98;42.74
62592;BME280;48659;41.622;2.276;2023-03-24T08:42:14;99644.62;;;16.55;42.69
62592;BME280;48659;41.622;2.276;2023-03-24T08:44:43;99652.63;;;13.75;46.65
62592;BME280;48659;41.622;2.276;2023-03-24T08:47:11;99649.90;;;15.91;43.56
62592;BME280;48659;41.622;2.276;2023-03-24T08:49:39;99647.85;;;15.18;43.40
62592;BME280;48659;41.622;2.276;2023-03-24T08:52:06;99638.44;;;17.50;41.07
62592;BME280;48659;41.622;2.276;2023-03-24T08:54:34;99632.00;;;17.44;40.66
62592;BME280;48659;41.622;2.276;2023-03-24T08:57:03;99631.64;;;17.40;40.34
62592;BME280;48659;41.622;2.276;2023-03-24T08:59:31;99632.99;;;16.86;41.59
62592;BME280;48659;41.622;2.276;2023-03-24T09:01:59;99638.12;;;15.61;43.12
62592;BME280;48659;41.622;2.276;2023-03-24T09:04:26;99631.16;;;16.83;41.78
62592;BME280;48659;41.622;2.276;2023-03-24T09:06:54;99629.28;;;17.06;39.65
62592;BME280;48659;41.622;2.276;2023-03-24T09:09:21;99634.63;;;16.25;42.23
62592;BME280;48659;41.622;2.276;2023-03-24T09:11:49;99639.82;;;15.61;43.10
62592;BME280;48659;41.622;2.276;2023-03-24T09:14:17;99640.92;;;16.07;43.11
62592;BME280;48659;41.622;2.276;2023-03-24T09:16:45;99631.62;;;17.47;39.42
62592;BME280;48659;41.622;2.276;2023-03-24T09:19:12;99631.72;;;16.14;42.41
62592;BME280;48659;41.622;2.276;2023-03-24T09:21:41;99627.23;;;17.63;38.75
62592;BME280;48659;41.622;2.276;2023-03-24T09:24:08;99625.89;;;17.87;39.57
62592;BME280;48659;41.622;2.276;2023-03-24T09:26:37;99632.98;;;16.52;40.55
62592;BME280;48659;41.622;2.276;2023-03-24T09:29:07;99639.09;;;17.02;40.62
62592;BME280;48659;41.622;2.276;2023-03-24T09:31:34;99633.76;;;17.80;38.53
62592;BME280;48659;41.622;2.276;2023-03-24T09:34:02;99634.34;;;17.80;39.54
62592;BME280;48659;41.622;2.276;2023-03-24T09:36:30;99628.01;;;18.02;38.83
62592;BME280;48659;41.622;2.276;2023-03-24T09:38:57;99624.73;;;18.66;38.10
62592;BME280;48659;41.622;2.276;2023-03-24T09:41:27;99621.48;;;18.67;38.41
62592;BME280;48659;41.622;2.276;2023-03-24T09:43:59;99627.61;;;19.54;36.89
62592;BME280;48659;41.622;2.276;2023-03-24T09:46:33;99634.33;;;18.89;37.15
62592;BME280;48659;41.622;2.276;2023-03-24T09:49:02;99639.56;;;19.63;36.22
62592;BME280;48659;41.622;2.276;2023-03-24T09:51:42;99636.59;;;19.32;35.38
62592;BME280;48659;41.622;2.276;2023-03-24T09:54:16;99641.52;;;19.51;35.95
62592;BME280;48659;41.622;2.276;2023-03-24T09:56:45;99636.57;;;19.57;35.51
62592;BME280;48659;41.622;2.276;2023-03-24T09:59:16;99632.80;;;19.82;34.99
62592;BME280;48659;41.622;2.276;2023-03-24T10:01:44;99634.34;;;18.81;36.02
62592;BME280;48659;41.622;2.276;2023-03-24T10:04:14;99630.42;;;20.15;34.31
62592;BME280;48659;41.622;2.276;2023-03-24T10:06:43;99626.86;;;20.03;34.40
62592;BME280;48659;41.622;2.276;2023-03-24T10:09:19;99629.98;;;19.75;34.84
62592;BME280;48659;41.622;2.276;2023-03-24T10:11:56;99630.20;;;19.31;34.27
62592;BME280;48659;41.622;2.276;2023-03-24T10:14:43;99643.81;;;19.78;34.38
62592;BME280;48659;41.622;2.276;2023-03-24T10:17:21;99645.82;;;20.10;34.35
62592;BME280;48659;41.622;2.276;2023-03-24T10:19:56;99641.09;;;19.78;34.65
62592;BME280;48659;41.622;2.276;2023-03-24T10:22:31;99646.01;;;18.09;37.21
62592;BME280;48659;41.622;2.276;2023-03-24T10:25:05;99651.68;;;19.48;35.00
62592;BME280;48659;41.622;2.276;2023-03-24T10:27:41;99640.55;;;19.84;33.98
62592;BME280;48659;41.622;2.276;2023-03-24T10:30:16;99640.23;;;19.79;34.24
62592;BME280;48659;41.622;2.276;2023-03-24T10:32:44;99636.58;;;19.72;33.66
62592;BME280;48659;41.622;2.276;2023-03-24T10:35:17;99636.77;;;20.30;33.01
62592;BME280;48659;41.622;2.276;2023-03-24T10:37:45;99633.32;;;20.73;31.11
62592;BME280;48659;41.622;2.276;2023-03-24T10:40:18;99633.24;;;20.47;31.10
62592;BME280;48659;41.622;2.276;2023-03-24T10:42:48;99625.81;;;20.25;30.83
62592;BME280;48659;41.622;2.276;2023-03-24T10:45:25;99621.94;;;20.63;30.95
62592;BME280;48659;41.622;2.276;2023-03-24T10:47:57;99605.78;;;21.23;28.98
62592;BME280;48659;41.622;2.276;2023-03-24T10:50:27;99610.99;;;21.34;29.66
62592;BME280;48659;41.622;2.276;2023-03-24T10:53:08;99602.32;;;22.12;27.64
62592;BME280;48659;41.622;2.276;2023-03-24T10:55:38;99604.80;;;22.21;26.63
62592;BME280;48659;41.622;2.276;2023-03-24T10:58:16;99602.94;;;23.20;24.89
62592;BME280;48659;41.622;2.276;2023-03-24T11:00:46;99605.37;;;23.00;24.51
62592;BME280;48659;41.622;2.276;2023-03-24T11:03:16;99602.00;;;23.23;24.45
62592;BME280;48659;41.622;2.276;2023-03-24T11:05:48;99598.09;;;22.66;24.37
62592;BME280;48659;41.622;2.276;2023-03-24T11:08:26;99603.45;;;23.51;23.67
62592;BME280;48659;41.622;2.276;2023-03-24T11:10:54;99597.64;;;22.82;23.81
62592;BME280;48659;41.622;2.276;2023-03-24T11:13:29;99593.60;;;23.83;25.49
62592;BME280;48659;41.622;2.276;2023-03-24T11:16:08;99600.26;;;21.83;24.58
62592;BME280;48659;41.622;2.276;2023-03-24T11:18:37;99601.66;;;21.34;25.13
62592;BME280;48659;41.622;2.276;2023-03-24T11:21:05;99598.69;;;22.28;24.21
62592;BME280;48659;41.622;2.276;2023-03-24T11:23:37;99602.25;;;22.90;23.70
62592;BME280;48659;41.622;2.276;2023-03-24T11:26:08;99591.28;;;23.76;22.99
62592;BME280;48659;41.622;2.276;2023-03-24T11:28:44;99594.12;;;23.36;22.81
62592;BME280;48659;41.622;2.276;2023-03-24T11:31:19;99588.72;;;24.11;23.04
62592;BME280;48659;41.622;2.276;2023-03-24T11:33:50;99592.79;;;22.97;24.15
62592;BME280;48659;41.622;2.276;2023-03-24T11:36:39;99584.16;;;23.79;24.00
62592;BME280;48659;41.622;2.276;2023-03-24T11:39:17;99590.00;;;24.18;22.37
62592;BME280;48659;41.622;2.276;2023-03-24T11:41:58;99595.84;;;23.93;22.39
62592;BME280;48659;41.622;2.276;2023-03-24T11:44:28;99587.89;;;24.11;22.32
62592;BME280;48659;41.622;2.276;2023-03-24T11:47:05;99590.63;;;22.22;24.10
62592;BME280;48659;41.622;2.276;2023-03-24T11:49:41;99590.43;;;22.65;22.38
62592;BME280;48659;41.622;2.276;2023-03-24T11:52:16;99593.65;;;23.46;22.10
62592;BME280;48659;41.622;2.276;2023-03-24T11:54:47;99594.26;;;22.34;21.58
62592;BME280;48659;41.622;2.276;2023-03-24T11:57:19;99591.95;;;24.35;21.07
62592;BME280;48659;41.622;2.276;2023-03-24T11:59:56;99589.75;;;24.34;21.26
62592;BME280;48659;41.622;2.276;2023-03-24T12:02:40;99585.62;;;22.98;22.49
62592;BME280;48659;41.622;2.276;2023-03-24T12:05:23;99583.05;;;24.47;20.54
62592;BME280;48659;41.622;2.276;2023-03-24T12:08:02;99591.90;;;24.76;19.59
62592;BME280;48659;41.622;2.276;2023-03-24T12:10:43;99592.35;;;24.26;19.03
62592;BME280;48659;41.622;2.276;2023-03-24T12:13:19;99582.74;;;24.84;19.14
62592;BME280;48659;41.622;2.276;2023-03-24T12:15:56;99590.96;;;22.25;20.03
62592;BME280;48659;41.622;2.276;2023-03-24T12:18:35;99596.89;;;23.03;19.62
62592;BME280;48659;41.622;2.276;2023-03-24T12:21:12;99592.07;;;22.96;19.80
62592;BME280;48659;41.622;2.276;2023-03-24T12:23:54;99598.45;;;22.63;19.61
62592;BME280;48659;41.622;2.276;2023-03-24T12:26:25;99599.78;;;21.47;21.01
62592;BME280;48659;41.622;2.276;2023-03-24T12:29:01;99599.49;;;22.12;20.62
62592;BME280;48659;41.622;2.276;2023-03-24T12:31:49;99600.07;;;20.43;21.14
62592;BME280;48659;41.622;2.276;2023-03-24T12:34:38;99610.23;;;21.48;21.15
62592;BME280;48659;41.622;2.276;2023-03-24T12:37:10;99599.63;;;22.20;20.49
62592;BME280;48659;41.622;2.276;2023-03-24T12:39:46;99587.58;;;23.12;19.22
62592;BME280;48659;41.622;2.276;2023-03-24T12:42:18;99592.69;;;23.47;18.98
62592;BME280;48659;41.622;2.276;2023-03-24T12:45:33;99584.03;;;24.79;17.86
62592;BME280;48659;41.622;2.276;2023-03-24T12:48:20;99579.14;;;23.86;18.22
62592;BME280;48659;41.622;2.276;2023-03-24T12:51:00;99574.22;;;23.59;18.51
62592;BME280;48659;41.622;2.276;2023-03-24T12:53:40;99571.29;;;24.76;17.26
62592;BME280;48659;41.622;2.276;2023-03-24T12:56:14;99567.85;;;24.05;17.94
62592;BME280;48659;41.622;2.276;2023-03-24T12:58:47;99564.08;;;24.37;17.23
62592;BME280;48659;41.622;2.276;2023-03-24T13:01:22;99572.07;;;23.06;17.84
62592;BME280;48659;41.622;2.276;2023-03-24T13:03:57;99577.08;;;22.85;18.06
62592;BME280;48659;41.622;2.276;2023-03-24T13:06:36;99566.87;;;22.38;18.00
62592;BME280;48659;41.622;2.276;2023-03-24T13:09:12;99565.14;;;23.00;17.48
62592;BME280;48659;41.622;2.276;2023-03-24T13:11:49;99566.60;;;22.21;17.28
62592;BME280;48659;41.622;2.276;2023-03-24T13:14:24;99565.60;;;23.57;17.16
62592;BME280;48659;41.622;2.276;2023-03-24T13:16:59;99564.86;;;23.09;17.61
62592;BME280;48659;41.622;2.276;2023-03-24T13:19:29;99562.60;;;23.31;17.77
62592;BME280;48659;41.622;2.276;2023-03-24T13:21:57;99551.69;;;23.91;17.26
62592;BME280;48659;41.622;2.276;2023-03-24T13:24:25;99566.01;;;23.35;17.77
62592;BME280;48659;41.622;2.276;2023-03-24T13:26:57;99564.70;;;22.68;18.25
62592;BME280;48659;41.622;2.276;2023-03-24T13:29:54;99570.22;;;22.82;18.08
62592;BME280;48659;41.622;2.276;2023-03-24T13:32:31;99601.30;;;21.94;19.09